Time;durP1;ratioP1;P1;durP2;ratioP2;P2;SDS_P1;SDS_P2;PMS_P1;PMS_P2;Temp;Humidity;BMP_temperature;BMP_pressure;BME280_temperature;BME280_humidity;BME280_pressure;Samples;Min_cycle;Max_cycle;Signal;HPM_P1;HPM_P2
2022/10/06 00:02:16;;;;;;;830.37;767.30;;;13.20;99.90;;;;;;4998645;28;20486;-82
2022/10/06 00:04:43;;;;;;;826.70;761.63;;;13.30;99.90;;;;;;4997762;28;20803;-83
2022/10/06 00:07:11;;;;;;;826.57;758.83;;;13.30;99.90;;;;;;4997969;28;20450;-82
2022/10/06 00:09:38;;;;;;;826.13;759.77;;;13.20;99.90;;;;;;4998231;28;20457;-82
2022/10/06 00:12:05;;;;;;;821.40;754.80;;;13.30;99.90;;;;;;4997980;28;20801;-82
2022/10/06 00:14:31;;;;;;;826.50;758.70;;;13.30;99.90;;;;;;4998030;28;20449;-83
2022/10/06 00:16:58;;;;;;;821.67;752.70;;;13.30;99.90;;;;;;5000930;28;20453;-83
2022/10/06 00:19:25;;;;;;;814.23;743.27;;;13.20;99.90;;;;;;5002248;28;20501;-82
2022/10/06 00:21:52;;;;;;;808.20;735.97;;;13.20;99.90;;;;;;5002845;28;20481;-82
2022/10/06 00:24:20;;;;;;;799.33;726.47;;;13.20;99.90;;;;;;5001856;28;20454;-82
2022/10/06 00:26:47;;;;;;;797.27;723.00;;;13.20;99.90;;;;;;5001426;28;20477;-83
2022/10/06 00:29:13;;;;;;;804.80;729.93;;;13.20;99.90;;;;;;5002321;28;20474;-83
2022/10/06 00:31:41;;;;;;;797.27;722.83;;;13.10;99.90;;;;;;5002442;28;20446;-82
2022/10/06 00:34:07;;;;;;;792.37;716.00;;;13.00;99.90;;;;;;5001865;28;20458;-82
2022/10/06 00:36:34;;;;;;;811.90;734.87;;;13.00;99.90;;;;;;5001238;28;20959;-83
2022/10/06 00:39:01;;;;;;;824.60;746.20;;;12.90;99.90;;;;;;5001786;28;20474;-82
2022/10/06 00:41:29;;;;;;;814.33;736.13;;;12.80;99.90;;;;;;5001303;28;20477;-82
2022/10/06 00:43:57;;;;;;;829.97;751.07;;;12.80;99.90;;;;;;5001712;28;20473;-83
2022/10/06 00:46:29;;;;;;;849.00;771.13;;;12.80;99.90;;;;;;5001423;28;20453;-83
2022/10/06 00:49:00;;;;;;;855.87;778.47;;;12.70;99.90;;;;;;5001118;28;20481;-83
2022/10/06 00:51:28;;;;;;;856.13;779.43;;;12.60;99.90;;;;;;5000990;28;20454;-83
2022/10/06 00:53:56;;;;;;;855.03;778.33;;;12.60;99.90;;;;;;5001453;28;20445;-83
2022/10/06 00:56:24;;;;;;;867.97;791.70;;;12.60;99.90;;;;;;5002017;28;20553;-83
2022/10/06 00:58:53;;;;;;;874.83;798.50;;;12.60;99.90;;;;;;5002503;28;20474;-83
2022/10/06 01:01:19;;;;;;;878.07;803.27;;;12.60;99.90;;;;;;5002202;28;20478;-83
2022/10/06 01:03:53;;;;;;;885.30;811.53;;;12.50;99.90;;;;;;5002128;28;20462;-83
2022/10/06 01:06:20;;;;;;;878.20;805.30;;;12.60;99.90;;;;;;5001685;28;20442;-83
2022/10/06 01:08:47;;;;;;;885.90;813.80;;;12.60;99.90;;;;;;5002182;28;20505;-83
2022/10/06 01:11:14;;;;;;;891.87;820.17;;;12.60;99.90;;;;;;5001965;28;20453;-83
2022/10/06 01:13:43;;;;;;;894.17;825.77;;;12.50;99.90;;;;;;5001869;28;20461;-82
2022/10/06 01:16:17;;;;;;;892.53;831.27;;;12.60;99.90;;;;;;5001910;28;20481;-82
2022/10/06 01:18:46;;;;;;;897.20;837.80;;;12.70;99.90;;;;;;5004826;28;20482;-82
2022/10/06 01:21:20;;;;;;;871.03;815.60;;;12.70;99.90;;;;;;5001302;28;20914;-83
2022/10/06 01:23:49;;;;;;;802.00;755.67;;;12.60;99.90;;;;;;5003070;28;20453;-83
2022/10/06 01:26:18;;;;;;;714.10;675.80;;;12.70;99.90;;;;;;5001543;28;20450;-82
2022/10/06 01:28:46;;;;;;;696.10;660.33;;;12.70;99.90;;;;;;5002726;28;20493;-83
2022/10/06 01:31:13;;;;;;;726.00;687.43;;;12.70;99.90;;;;;;5001465;28;20496;-83
2022/10/06 01:33:40;;;;;;;769.73;726.43;;;12.60;99.90;;;;;;5001872;28;20462;-83
2022/10/06 01:36:07;;;;;;;821.77;773.77;;;12.70;99.90;;;;;;5000409;28;20494;-83
2022/10/06 01:38:36;;;;;;;847.20;797.23;;;12.60;99.90;;;;;;5001810;28;20477;-83
2022/10/06 01:41:04;;;;;;;867.07;814.77;;;12.60;99.90;;;;;;5001457;28;20454;-83
2022/10/06 01:43:31;;;;;;;874.70;820.63;;;12.60;99.90;;;;;;5001201;28;20486;-81
2022/10/06 01:45:58;;;;;;;885.53;830.37;;;12.60;99.90;;;;;;5000558;28;20450;-83
2022/10/06 01:48:26;;;;;;;891.73;835.10;;;12.50;99.90;;;;;;5001430;28;20482;-83
2022/10/06 01:50:53;;;;;;;892.83;836.17;;;12.50;99.90;;;;;;5001661;28;20457;-83
2022/10/06 01:53:21;;;;;;;865.20;812.90;;;12.50;99.90;;;;;;5000766;28;20457;-83
2022/10/06 01:55:48;;;;;;;833.17;784.30;;;12.60;99.90;;;;;;5000856;28;20461;-83
2022/10/06 01:58:16;;;;;;;745.90;706.30;;;12.60;99.90;;;;;;5001340;28;20480;-82
2022/10/06 02:00:43;;;;;;;606.33;577.93;;;12.60;99.90;;;;;;5003157;28;20457;-83
2022/10/06 02:03:10;;;;;;;480.57;460.10;;;12.70;99.90;;;;;;5000679;28;20485;-83
2022/10/06 02:05:37;;;;;;;527.30;505.00;;;12.70;99.90;;;;;;5000433;28;20485;-83
2022/10/06 02:08:04;;;;;;;389.13;373.33;;;12.70;99.90;;;;;;5002126;28;20481;-83
2022/10/06 02:10:30;;;;;;;367.13;353.87;;;12.80;99.90;;;;;;5001008;28;20454;-83
2022/10/06 02:12:57;;;;;;;351.30;338.90;;;12.80;99.90;;;;;;5001392;28;20450;-83
2022/10/06 02:15:27;;;;;;;342.63;330.67;;;12.80;99.90;;;;;;5000225;28;20446;-83
2022/10/06 02:17:54;;;;;;;337.60;325.10;;;12.80;99.90;;;;;;5001692;28;20560;-83
2022/10/06 02:20:22;;;;;;;362.53;349.43;;;12.80;99.90;;;;;;5000002;28;20450;-83
2022/10/06 02:22:48;;;;;;;340.13;327.73;;;12.80;99.90;;;;;;5000968;28;20478;-83
2022/10/06 02:25:16;;;;;;;361.57;348.17;;;12.80;99.90;;;;;;4999454;28;20458;-83
2022/10/06 02:27:43;;;;;;;435.20;417.87;;;12.70;99.90;;;;;;4999440;28;20855;-82
2022/10/06 02:30:11;;;;;;;478.97;460.53;;;12.60;99.90;;;;;;4999103;28;20473;-83
2022/10/06 02:32:41;;;;;;;501.27;481.20;;;12.60;99.90;;;;;;4998933;28;20446;-82
2022/10/06 02:35:11;;;;;;;571.67;546.67;;;12.50;99.90;;;;;;4997244;28;20462;-83
2022/10/06 02:37:39;;;;;;;559.80;534.87;;;12.50;99.90;;;;;;4996174;28;20509;-83
2022/10/06 02:40:07;;;;;;;578.07;552.57;;;12.40;99.90;;;;;;4995346;28;20450;-83
2022/10/06 02:42:36;;;;;;;579.07;553.33;;;12.50;99.90;;;;;;4992956;28;20474;-83
2022/10/06 02:45:05;;;;;;;565.20;539.77;;;12.40;99.90;;;;;;5001968;28;20454;-83
2022/10/06 02:47:32;;;;;;;555.43;530.67;;;12.50;99.90;;;;;;4998139;28;20574;-82
2022/10/06 02:50:02;;;;;;;524.97;503.33;;;12.50;99.90;;;;;;4996503;28;20562;-81
2022/10/06 02:52:33;;;;;;;417.03;400.70;;;12.40;99.90;;;;;;4981352;28;20454;-83
2022/10/06 02:55:00;;;;;;;421.47;405.60;;;12.50;99.90;;;;;;4996237;28;20461;-82
2022/10/06 02:57:27;;;;;;;435.63;418.80;;;12.50;99.90;;;;;;4996492;28;20482;-84
2022/10/06 02:59:54;;;;;;;410.80;394.80;;;12.40;99.90;;;;;;5001299;28;20454;-83
2022/10/06 03:02:20;;;;;;;379.03;364.83;;;12.40;99.90;;;;;;4997734;28;20474;-82
2022/10/06 03:07:51;;;;;;;313.37;302.20;;;12.50;99.90;;;;;;4974123;28;20545;-83
2022/10/06 03:10:17;;;;;;;309.13;298.90;;;12.40;99.90;;;;;;4981244;28;21065;-82
2022/10/06 03:12:44;;;;;;;237.30;229.53;;;12.30;99.90;;;;;;4984743;28;20970;-82
2022/10/06 03:15:11;;;;;;;228.87;220.87;;;12.30;99.90;;;;;;4989756;28;20474;-81
2022/10/06 03:17:37;;;;;;;166.27;160.37;;;12.30;99.90;;;;;;4994779;28;20594;-83
2022/10/06 03:20:05;;;;;;;103.03;98.77;;;12.40;99.90;;;;;;4996171;28;20443;-83
2022/10/06 03:22:32;;;;;;;103.70;99.57;;;12.40;99.90;;;;;;5011301;28;20481;-80
2022/10/06 03:25:00;;;;;;;116.43;112.13;;;12.40;99.90;;;;;;5011189;28;20477;-82
2022/10/06 03:27:26;;;;;;;127.20;122.40;;;12.30;99.90;;;;;;5015308;28;20469;-83
2022/10/06 03:29:53;;;;;;;135.20;130.03;;;12.20;99.90;;;;;;5001525;28;20461;-82
2022/10/06 03:32:22;;;;;;;109.10;104.40;;;12.20;99.90;;;;;;5000886;28;20461;-82
2022/10/06 03:34:49;;;;;;;106.37;102.07;;;12.20;99.90;;;;;;5000723;28;20486;-82
2022/10/06 03:37:17;;;;;;;54.77;52.47;;;12.20;99.90;;;;;;5002371;28;20565;-83
2022/10/06 03:39:44;;;;;;;55.10;52.50;;;12.30;99.90;;;;;;5002413;28;20454;-83
2022/10/06 03:42:12;;;;;;;60.67;57.80;;;12.10;99.90;;;;;;5001817;28;20480;-86
2022/10/06 03:44:39;;;;;;;55.07;51.50;;;12.10;99.90;;;;;;5000533;28;20739;-83
2022/10/06 03:47:06;;;;;;;46.77;44.37;;;12.00;99.90;;;;;;4998638;28;20454;-84
2022/10/06 03:49:36;;;;;;;59.23;56.30;;;12.00;99.90;;;;;;5001105;28;20450;-82
2022/10/06 03:52:02;;;;;;;52.90;50.50;;;11.90;99.90;;;;;;4992180;28;20801;-84
2022/10/06 03:54:29;;;;;;;60.33;56.87;;;12.00;99.90;;;;;;4997175;28;20485;-84
2022/10/06 03:56:56;;;;;;;96.27;91.80;;;11.80;99.90;;;;;;4998660;28;20442;-84
2022/10/06 03:59:24;;;;;;;129.87;125.20;;;11.80;99.90;;;;;;4998074;28;20442;-84
2022/10/06 04:01:51;;;;;;;83.00;79.90;;;11.70;99.90;;;;;;4999401;28;20453;-84
2022/10/06 04:04:18;;;;;;;71.60;68.40;;;11.70;99.90;;;;;;5000297;28;20446;-83
2022/10/06 04:06:45;;;;;;;67.13;63.37;;;11.70;99.90;;;;;;5000033;28;20468;-84
2022/10/06 04:09:13;;;;;;;61.23;58.47;;;11.60;99.90;;;;;;4999271;28;20470;-84
2022/10/06 04:11:40;;;;;;;41.93;39.77;;;11.70;99.90;;;;;;5000933;28;20441;-84
2022/10/06 04:14:08;;;;;;;41.73;39.27;;;11.70;99.90;;;;;;4997154;28;20450;-84
2022/10/06 04:16:38;;;;;;;32.30;30.07;;;11.80;99.90;;;;;;4999485;28;20454;-84
2022/10/06 04:19:08;;;;;;;30.10;28.20;;;11.70;99.90;;;;;;5000720;28;20849;-84
2022/10/06 04:21:36;;;;;;;33.90;31.10;;;11.60;99.90;;;;;;4998241;28;20456;-84
2022/10/06 04:24:04;;;;;;;37.40;34.93;;;11.50;99.90;;;;;;4999799;28;20474;-84
2022/10/06 04:26:32;;;;;;;31.30;29.60;;;11.40;99.90;;;;;;5000997;28;20458;-84
2022/10/06 04:29:00;;;;;;;31.27;29.73;;;11.40;99.90;;;;;;4997740;28;20927;-84
2022/10/06 04:31:29;;;;;;;30.33;28.80;;;11.40;99.90;;;;;;5000934;28;20454;-83
2022/10/06 04:33:59;;;;;;;24.07;22.07;;;11.40;99.90;;;;;;5006711;28;20449;-83
2022/10/06 04:36:30;;;;;;;29.47;27.67;;;11.30;99.90;;;;;;5003288;28;20480;-85
2022/10/06 04:38:58;;;;;;;32.27;30.27;;;11.20;99.90;;;;;;5003984;28;20481;-85
2022/10/06 04:41:28;;;;;;;30.23;28.17;;;11.20;99.90;;;;;;5000126;28;21056;-84
2022/10/06 04:43:55;;;;;;;32.77;30.57;;;11.20;99.90;;;;;;4996026;28;20573;-84
2022/10/06 04:46:24;;;;;;;20.30;18.67;;;11.20;99.90;;;;;;4996839;28;20512;-84
2022/10/06 04:48:51;;;;;;;26.87;24.80;;;11.40;99.90;;;;;;4996282;28;20516;-84
2022/10/06 04:51:21;;;;;;;20.77;19.10;;;11.30;99.90;;;;;;4995614;28;20457;-84
2022/10/06 04:53:48;;;;;;;18.57;16.60;;;11.20;99.90;;;;;;4997545;28;20453;-84
2022/10/06 04:56:17;;;;;;;17.17;15.13;;;11.20;99.90;;;;;;4995325;28;20460;-84
2022/10/06 04:58:46;;;;;;;19.63;18.33;;;11.20;99.90;;;;;;4995601;28;20477;-84
2022/10/06 05:01:16;;;;;;;15.87;14.30;;;11.10;99.90;;;;;;4997533;28;20456;-84
2022/10/06 05:03:44;;;;;;;16.13;13.33;;;11.20;99.90;;;;;;5004463;28;20482;-85
2022/10/06 05:06:13;;;;;;;16.03;10.67;;;11.20;99.90;;;;;;5001287;28;20914;-86
2022/10/06 05:08:43;;;;;;;21.10;8.30;;;11.20;99.90;;;;;;5004355;28;20478;-85
2022/10/06 05:11:11;;;;;;;7.80;7.10;;;11.10;99.90;;;;;;5003955;28;20453;-85
2022/10/06 05:13:39;;;;;;;14.57;7.70;;;11.20;99.90;;;;;;4999648;28;20446;-83
2022/10/06 05:16:08;;;;;;;9.40;8.17;;;11.10;99.90;;;;;;5000478;28;20458;-84
2022/10/06 05:18:35;;;;;;;10.90;9.43;;;11.00;99.90;;;;;;5001008;28;20473;-84
2022/10/06 05:21:05;;;;;;;16.10;11.77;;;11.00;99.90;;;;;;4983603;28;20679;-84
2022/10/06 05:23:34;;;;;;;16.00;12.20;;;10.90;99.90;;;;;;4995583;28;20478;-82
2022/10/06 05:26:03;;;;;;;18.00;16.40;;;10.80;99.90;;;;;;5001888;28;20454;-85
2022/10/06 05:28:31;;;;;;;20.00;18.27;;;10.80;99.90;;;;;;4999886;28;20580;-84
2022/10/06 05:31:00;;;;;;;24.70;22.93;;;10.70;99.90;;;;;;5000425;28;20454;-84
2022/10/06 05:33:29;;;;;;;41.10;38.70;;;10.70;99.90;;;;;;5000635;28;20453;-85
2022/10/06 05:35:57;;;;;;;57.47;54.67;;;10.50;99.90;;;;;;4999809;28;20461;-84
2022/10/06 05:38:24;;;;;;;60.90;57.47;;;10.50;99.90;;;;;;5000975;28;20474;-84
2022/10/06 05:40:51;;;;;;;96.53;92.53;;;10.30;99.90;;;;;;5000187;28;20450;-84
2022/10/06 05:43:19;;;;;;;133.40;127.37;;;10.20;99.90;;;;;;4999618;28;20482;-84
2022/10/06 05:45:56;;;;;;;165.07;158.60;;;10.10;99.90;;;;;;5001577;28;20469;-84
2022/10/06 05:48:23;;;;;;;208.87;201.33;;;10.20;99.90;;;;;;5043300;23;21026;-81
2022/10/06 05:50:57;;;;;;;199.47;192.27;;;10.10;99.90;;;;;;5052699;28;20451;-81
2022/10/06 05:53:24;;;;;;;208.67;200.47;;;10.10;99.90;;;;;;5046623;28;20443;-82
2022/10/06 05:55:51;;;;;;;268.77;259.30;;;9.90;99.90;;;;;;5040792;28;20972;-82
2022/10/06 05:58:19;;;;;;;318.33;306.97;;;9.80;99.90;;;;;;5039271;28;20468;-81
2022/10/06 06:00:45;;;;;;;357.97;343.17;;;9.70;99.90;;;;;;5021454;28;20455;-82
2022/10/06 06:03:12;;;;;;;397.07;380.47;;;9.60;99.90;;;;;;5030165;28;20964;-82
2022/10/06 06:05:41;;;;;;;441.23;421.97;;;9.70;99.90;;;;;;5027342;28;20459;-81
2022/10/06 06:08:09;;;;;;;448.43;429.77;;;9.70;99.90;;;;;;5016453;28;20998;-80
2022/10/06 06:10:36;;;;;;;460.40;439.97;;;9.60;99.90;;;;;;5024790;28;20496;-83
2022/10/06 06:13:02;;;;;;;448.90;428.83;;;9.60;99.90;;;;;;5026719;28;20448;-80
2022/10/06 06:18:15;;;;;;;421.10;403.70;;;9.80;99.90;;;;;;5025147;28;20522;-82
2022/10/06 06:20:42;;;;;;;404.37;385.60;;;9.70;99.90;;;;;;5018739;28;20855;-82
2022/10/06 06:23:09;;;;;;;372.20;357.10;;;9.80;99.90;;;;;;5027605;28;20476;-82
2022/10/06 06:25:35;;;;;;;383.93;368.50;;;9.80;99.90;;;;;;5018421;28;20452;-82
2022/10/06 06:28:02;;;;;;;380.57;365.13;;;9.80;99.90;;;;;;5021130;28;21140;-82
2022/10/06 06:30:30;;;;;;;342.80;328.40;;;9.90;99.90;;;;;;5025423;28;20460;-82
2022/10/06 06:32:59;;;;;;;329.27;316.53;;;9.90;99.90;;;;;;5022141;28;20454;-82
2022/10/06 06:35:25;;;;;;;323.80;311.37;;;10.00;99.90;;;;;;5016681;28;20457;-82
2022/10/06 06:37:52;;;;;;;294.67;283.93;;;10.10;99.90;;;;;;5033449;28;20483;-81
2022/10/06 06:40:19;;;;;;;264.92;254.93;;;10.00;99.90;;;;;;5027574;28;20457;-84
2022/10/06 06:42:46;;;;;;;230.53;221.40;;;10.10;99.90;;;;;;5032621;28;20202;-81
2022/10/06 06:45:13;;;;;;;230.20;221.40;;;10.10;99.90;;;;;;5032392;28;20456;-81
2022/10/06 06:47:41;;;;;;;205.03;197.43;;;10.20;99.90;;;;;;5033021;28;20452;-81
2022/10/06 06:50:09;;;;;;;205.83;198.50;;;10.30;99.90;;;;;;5033362;28;20864;-82
2022/10/06 06:52:36;;;;;;;171.17;164.87;;;10.30;99.90;;;;;;5032165;28;20982;-81
2022/10/06 06:55:04;;;;;;;180.60;174.17;;;10.30;99.90;;;;;;5032903;28;20828;-82
2022/10/06 06:57:30;;;;;;;162.00;155.33;;;10.40;99.90;;;;;;5034854;28;20463;-81
2022/10/06 07:00:06;;;;;;;179.10;171.57;;;10.40;99.90;;;;;;5033882;28;20455;-82
2022/10/06 07:02:33;;;;;;;168.07;161.40;;;10.50;99.90;;;;;;5033438;28;20474;-81
2022/10/06 07:05:01;;;;;;;144.97;139.33;;;10.60;99.90;;;;;;5032864;28;20484;-81
2022/10/06 07:07:28;;;;;;;96.83;92.70;;;10.70;99.90;;;;;;5033286;28;20463;-81
2022/10/06 07:09:54;;;;;;;96.53;91.67;;;10.80;99.90;;;;;;5032950;28;20811;-82
2022/10/06 07:12:21;;;;;;;67.53;64.33;;;10.80;99.90;;;;;;5030213;28;20838;-80
2022/10/06 07:25:46;;;;;;;36.77;32.33;;;11.10;99.90;;;;;;5033082;28;21048;-81
2022/10/06 07:28:15;;;;;;;34.47;31.97;;;11.20;99.90;;;;;;5031522;28;20551;-82
2022/10/06 07:30:43;;;;;;;27.70;25.33;;;11.30;99.90;;;;;;5031567;28;20460;-82
2022/10/06 07:33:10;;;;;;;28.80;26.47;;;11.40;99.90;;;;;;5031410;28;20519;-81
2022/10/06 07:35:39;;;;;;;30.00;27.93;;;11.40;99.90;;;;;;5030594;28;20484;-82
2022/10/06 07:38:06;;;;;;;24.90;23.10;;;11.50;99.90;;;;;;5031686;28;20473;-81
2022/10/06 07:40:33;;;;;;;28.20;25.60;;;11.60;99.90;;;;;;5031630;28;20842;-81
2022/10/06 07:43:01;;;;;;;20.60;18.90;;;11.60;99.90;;;;;;5031273;28;20464;-82
2022/10/06 07:45:38;;;;;;;26.40;22.40;;;11.70;99.90;;;;;;5030529;28;20495;-81
2022/10/06 07:48:06;;;;;;;14.40;11.33;;;11.90;99.90;;;;;;5031170;28;20479;-81
2022/10/06 07:50:33;;;;;;;24.80;10.60;;;11.90;99.90;;;;;;5031341;28;20460;-81
2022/10/06 07:53:03;;;;;;;20.50;7.67;;;12.10;99.90;;;;;;5030093;28;20456;-81
2022/10/06 07:55:31;;;;;;;14.37;4.90;;;12.20;99.90;;;;;;5030309;28;20459;-81
2022/10/06 07:57:58;;;;;;;12.47;4.70;;;12.20;99.90;;;;;;5031151;28;20511;-81
2022/10/06 08:00:26;;;;;;;15.30;4.20;;;12.30;99.90;;;;;;5030614;28;20456;-81
2022/10/06 08:02:53;;;;;;;8.93;3.70;;;12.40;99.90;;;;;;5031199;28;20968;-81
2022/10/06 08:05:20;;;;;;;19.40;3.40;;;12.50;99.90;;;;;;5030438;28;20475;-81
2022/10/06 08:07:47;;;;;;;7.57;3.47;;;12.60;99.60;;;;;;5031000;28;20533;-82
2022/10/06 08:10:17;;;;;;;20.13;3.73;;;12.70;99.50;;;;;;5031297;28;20452;-81
2022/10/06 08:12:43;;;;;;;22.00;3.23;;;12.80;98.80;;;;;;5031244;28;20458;-82
2022/10/06 08:15:13;;;;;;;6.40;2.27;;;12.90;98.80;;;;;;5030396;28;20452;-81
2022/10/06 08:17:40;;;;;;;9.50;2.93;;;13.00;98.40;;;;;;5031119;28;20868;-82
2022/10/06 08:20:09;;;;;;;16.33;3.20;;;13.10;97.90;;;;;;5030783;28;20447;-81
2022/10/06 08:22:37;;;;;;;15.43;2.40;;;13.20;98.80;;;;;;5030823;28;20460;-81
2022/10/06 08:25:05;;;;;;;17.37;2.93;;;13.20;96.70;;;;;;5028351;28;20511;-81
2022/10/06 08:27:34;;;;;;;18.83;2.80;;;13.30;96.60;;;;;;5030796;28;20452;-81
2022/10/06 08:30:00;;;;;;;13.30;2.70;;;13.50;96.90;;;;;;5030514;28;20505;-81
2022/10/06 08:32:27;;;;;;;12.43;3.07;;;13.50;95.00;;;;;;5032188;28;20850;-82
2022/10/06 08:34:54;;;;;;;14.63;2.77;;;13.60;96.10;;;;;;5030219;28;20448;-82
2022/10/06 08:37:22;;;;;;;13.67;2.70;;;13.70;94.50;;;;;;5032256;28;20979;-81
2022/10/06 08:39:49;;;;;;;13.40;2.07;;;14.00;93.30;;;;;;5035156;28;20543;-82
2022/10/06 08:42:24;;;;;;;15.70;3.40;;;14.20;92.70;;;;;;5034299;28;20876;-81
2022/10/06 08:44:57;;;;;;;10.20;2.23;;;14.60;92.90;;;;;;5033267;28;20476;-81
2022/10/06 08:47:27;;;;;;;13.23;2.30;;;15.10;90.60;;;;;;5034608;28;20458;-81
2022/10/06 08:49:55;;;;;;;14.93;3.13;;;15.30;90.60;;;;;;5034569;28;20871;-82
2022/10/06 08:52:34;;;;;;;20.07;2.60;;;15.60;88.80;;;;;;5034139;28;20495;-82
2022/10/06 08:55:07;;;;;;;14.87;2.50;;;15.90;87.20;;;;;;5034488;28;20824;-83
2022/10/06 08:57:40;;;;;;;11.83;2.50;;;16.30;82.70;;;;;;5034391;28;20453;-82
2022/10/06 09:00:13;;;;;;;8.80;2.27;;;16.40;80.20;;;;;;5033810;28;20458;-82
2022/10/06 09:02:44;;;;;;;15.20;2.70;;;16.70;77.40;;;;;;5034408;28;20461;-82
2022/10/06 09:05:14;;;;;;;14.07;2.20;;;16.80;77.50;;;;;;5033361;28;20526;-83
2022/10/06 09:07:52;;;;;;;9.40;2.13;;;16.90;73.00;;;;;;5034360;28;20461;-83
2022/10/06 09:10:38;;;;;;;11.20;1.83;;;17.10;71.60;;;;;;5034633;28;20460;-82
2022/10/06 09:13:09;;;;;;;11.67;2.70;;;17.60;72.70;;;;;;5035045;28;20465;-82
2022/10/06 09:15:41;;;;;;;8.40;2.30;;;17.70;68.00;;;;;;5034310;28;20467;-84
2022/10/06 09:18:13;;;;;;;18.37;3.10;;;17.90;68.50;;;;;;5035902;28;21016;-83
2022/10/06 09:20:43;;;;;;;19.97;2.67;;;18.10;65.80;;;;;;5035016;28;20463;-81
2022/10/06 09:23:15;;;;;;;11.13;3.03;;;18.10;67.50;;;;;;5035911;28;20456;-83
2022/10/06 09:25:43;;;;;;;10.77;2.40;;;18.20;64.40;;;;;;5034519;28;20927;-84
2022/10/06 09:28:14;;;;;;;15.60;2.77;;;18.50;64.30;;;;;;5036231;28;20780;-85
2022/10/06 09:30:43;;;;;;;20.00;3.77;;;18.50;59.30;;;;;;5035470;28;20464;-84
2022/10/06 09:33:17;;;;;;;13.93;1.80;;;18.40;57.80;;;;;;5037157;28;20455;-84
2022/10/06 09:36:05;;;;;;;11.33;3.10;;;18.60;59.50;;;;;;5033740;28;20450;-85
2022/10/06 09:38:46;;;;;;;12.13;2.50;;;19.10;59.60;;;;;;5034639;28;20478;-83
2022/10/06 09:41:13;;;;;;;14.50;2.63;;;19.10;53.40;;;;;;5035220;28;20453;-84
2022/10/06 09:43:51;;;;;;;8.43;1.50;;;19.30;57.90;;;;;;5035653;28;20462;-84
2022/10/06 09:46:20;;;;;;;15.70;2.70;;;19.40;52.20;;;;;;5037395;28;20652;-84
2022/10/06 09:48:47;;;;;;;11.63;2.00;;;19.30;52.60;;;;;;5035524;28;20483;-84
2022/10/06 09:51:15;;;;;;;16.73;2.30;;;19.60;45.90;;;;;;5035618;28;20463;-83
2022/10/06 09:53:43;;;;;;;13.10;4.13;;;19.60;47.10;;;;;;5036340;28;20466;-84
2022/10/06 09:56:17;;;;;;;10.63;2.00;;;19.90;47.50;;;;;;5033298;28;20471;-83
2022/10/06 09:58:55;;;;;;;14.43;2.30;;;19.70;48.90;;;;;;5031153;28;20472;-81
2022/10/06 10:01:26;;;;;;;9.63;1.80;;;19.80;48.90;;;;;;5034245;28;20459;-82
2022/10/06 10:03:56;;;;;;;14.70;1.97;;;20.40;47.60;;;;;;5032767;28;20444;-83
2022/10/06 10:06:26;;;;;;;10.57;2.23;;;20.00;45.50;;;;;;5032031;28;20452;-83
2022/10/06 10:09:12;;;;;;;11.47;1.93;;;19.80;43.30;;;;;;5032840;28;21165;-83
2022/10/06 10:14:23;;;;;;;10.03;1.83;;;19.90;44.30;;;;;;5032176;28;20431;-83
2022/10/06 10:16:51;;;;;;;15.60;2.00;;;20.40;38.80;;;;;;5033369;28;20453;-83
2022/10/06 10:19:26;;;;;;;7.53;1.67;;;20.00;37.30;;;;;;5031064;28;20479;-83
2022/10/06 10:21:55;;;;;;;8.40;1.90;;;20.20;35.40;;;;;;5033434;28;20822;-83
2022/10/06 10:24:33;;;;;;;13.03;2.60;;;20.60;35.80;;;;;;5032281;28;20476;-80
2022/10/06 10:27:08;;;;;;;10.30;1.77;;;20.80;33.70;;;;;;5032979;28;20456;-83
2022/10/06 10:29:46;;;;;;;10.73;2.33;;;20.90;30.70;;;;;;5033032;28;20482;-84
2022/10/06 10:32:18;;;;;;;6.77;1.83;;;21.10;32.10;;;;;;5033808;28;20478;-82
2022/10/06 10:35:00;;;;;;;11.03;1.87;;;20.80;28.80;;;;;;5032057;28;20448;-82
2022/10/06 10:37:37;;;;;;;9.23;1.70;;;20.80;31.30;;;;;;5033032;28;20488;-82
2022/10/06 10:40:11;;;;;;;10.93;2.17;;;20.50;30.10;;;;;;5033145;28;20837;-82
2022/10/06 10:42:46;;;;;;;12.77;1.80;;;20.60;29.70;;;;;;5032654;28;20970;-82
2022/10/06 10:45:17;;;;;;;9.00;1.97;;;20.60;30.50;;;;;;5032216;28;20492;-83
2022/10/06 10:47:49;;;;;;;10.60;2.17;;;20.60;32.20;;;;;;5032864;28;20490;-83
2022/10/06 10:50:24;;;;;;;11.77;2.47;;;20.60;27.60;;;;;;5032620;28;20503;-82
2022/10/06 10:52:53;;;;;;;9.50;2.20;;;21.10;27.80;;;;;;5032953;28;20509;-82
2022/10/06 10:55:27;;;;;;;10.00;2.20;;;21.30;25.00;;;;;;5032082;28;20841;-82
2022/10/06 10:57:58;;;;;;;7.63;2.20;;;21.50;25.60;;;;;;5032994;28;20471;-82
2022/10/06 11:00:29;;;;;;;8.70;2.03;;;21.90;27.40;;;;;;5031884;28;20778;-83
2022/10/06 11:03:00;;;;;;;8.77;1.97;;;21.50;22.50;;;;;;5033122;28;20488;-82
2022/10/06 11:05:43;;;;;;;14.50;3.40;;;21.10;22.50;;;;;;5031671;28;21000;-82
2022/10/06 11:08:15;;;;;;;11.63;2.10;;;21.60;22.80;;;;;;5033317;28;20537;-82
2022/10/06 11:10:49;;;;;;;8.30;2.00;;;22.10;24.20;;;;;;5032327;28;20487;-82
2022/10/06 11:13:24;;;;;;;10.37;2.13;;;22.10;24.50;;;;;;5032672;28;20539;-82
2022/10/06 11:16:04;;;;;;;9.40;2.40;;;22.00;24.10;;;;;;5031864;28;20448;-82
2022/10/06 11:18:44;;;;;;;14.93;1.77;;;21.90;24.50;;;;;;5032104;28;20487;-82
2022/10/06 11:21:15;;;;;;;14.40;2.13;;;22.20;21.30;;;;;;5032209;28;20558;-83
2022/10/06 11:23:53;;;;;;;6.97;2.00;;;22.00;20.00;;;;;;5032073;28;20467;-82
2022/10/06 11:26:34;;;;;;;14.83;2.13;;;22.10;22.90;;;;;;5031028;28;20891;-82
2022/10/06 11:29:13;;;;;;;12.03;3.23;;;22.50;20.00;;;;;;5030999;28;21011;-83
2022/10/06 11:31:51;;;;;;;10.03;2.10;;;22.80;18.70;;;;;;5033801;28;20797;-83
2022/10/06 11:34:19;;;;;;;12.53;2.77;;;23.10;18.50;;;;;;5031635;28;20464;-82
2022/10/06 11:36:53;;;;;;;17.90;2.00;;;22.50;19.00;;;;;;5029932;28;20459;-82
2022/10/06 11:39:23;;;;;;;12.90;1.93;;;22.20;20.10;;;;;;5032257;28;21006;-82
2022/10/06 11:41:57;;;;;;;13.83;1.97;;;22.40;19.40;;;;;;5032267;28;20463;-82
2022/10/06 11:44:32;;;;;;;14.57;2.27;;;22.50;18.60;;;;;;5031158;28;20455;-82
2022/10/06 11:47:02;;;;;;;12.63;2.83;;;23.20;16.10;;;;;;5032172;28;20546;-84
2022/10/06 11:49:55;;;;;;;10.40;2.10;;;23.30;15.90;;;;;;5068175;22;20494;-82
2022/10/06 11:52:43;;;;;;;8.73;1.90;;;22.70;14.10;;;;;;4998253;28;20438;-82
2022/10/06 11:55:16;;;;;;;7.20;2.03;;;23.40;14.60;;;;;;4997831;28;20450;-83
2022/10/06 11:58:19;;;;;;;11.07;1.70;;;23.50;13.50;;;;;;4998930;28;20459;-81
2022/10/06 12:00:48;;;;;;;7.03;1.70;;;23.00;11.00;;;;;;4983966;28;20458;-84
2022/10/06 12:03:55;;;;;;;9.67;1.90;;;22.80;12.70;;;;;;4991647;28;20478;-85
2022/10/06 12:06:59;;;;;;;9.57;1.50;;;23.10;13.30;;;;;;4992666;28;20555;-85
2022/10/06 12:09:49;;;;;;;11.93;1.80;;;23.70;11.00;;;;;;4992532;28;20467;-85
2022/10/06 12:12:44;;;;;;;12.03;2.10;;;23.70;8.10;;;;;;4995885;28;20453;-85
2022/10/06 12:15:46;;;;;;;6.60;2.33;;;23.70;8.70;;;;;;4986228;28;20466;-83
2022/10/06 12:18:31;;;;;;;10.80;2.73;;;23.00;10.50;;;;;;4965439;28;20474;-84
2022/10/06 12:21:19;;;;;;;9.87;2.10;;;23.70;11.10;;;;;;4984359;28;20458;-84
2022/10/06 12:24:01;;;;;;;8.80;1.80;;;23.80;7.30;;;;;;4981365;28;20955;-83
2022/10/06 12:26:38;;;;;;;10.67;2.33;;;24.00;9.00;;;;;;4982677;28;20518;-84
2022/10/06 12:29:33;;;;;;;7.13;1.83;;;24.30;7.60;;;;;;4982511;28;21006;-84
2022/10/06 12:32:08;;;;;;;7.10;2.00;;;23.70;7.20;;;;;;4983275;28;20462;-85
2022/10/06 12:34:42;;;;;;;7.30;2.33;;;24.40;8.50;;;;;;4983076;28;20454;-83
2022/10/06 12:37:35;;;;;;;12.63;2.93;;;24.80;4.60;;;;;;4982892;28;20446;-83
2022/10/06 12:40:40;;;;;;;9.83;1.90;;;24.40;6.20;;;;;;4981816;28;20541;-84
2022/10/06 12:43:35;;;;;;;11.93;2.20;;;24.00;5.10;;;;;;4981857;28;20516;-84
2022/10/06 12:46:06;;;;;;;7.80;1.73;;;23.60;2.60;;;;;;4981878;28;20462;-84
2022/10/06 12:48:38;;;;;;;7.23;1.50;;;23.50;6.90;;;;;;4982479;28;20490;-84
2022/10/06 12:51:18;;;;;;;5.80;1.50;;;24.20;3.20;;;;;;4983177;28;20843;-84
2022/10/06 12:53:51;;;;;;;7.53;1.57;;;23.30;1.60;;;;;;4984744;28;20454;-84
2022/10/06 12:56:27;;;;;;;6.73;1.57;;;23.30;5.20;;;;;;4986126;28;20483;-84
2022/10/06 12:58:56;;;;;;;8.83;1.80;;;22.80;6.60;;;;;;4986612;28;20497;-83
2022/10/06 13:01:24;;;;;;;12.70;2.60;;;22.90;6.60;;;;;;4985265;28;20517;-84
2022/10/06 13:03:53;;;;;;;8.70;2.00;;;23.40;6.60;;;;;;4984177;28;20466;-83